createdAt,value
2022-11-05T06:05:14.461Z,11.80
2022-11-05T06:10:18.129Z,11.80
2022-11-05T06:15:21.688Z,11.80
2022-11-05T06:20:26.596Z,11.80
2022-11-05T06:25:30.115Z,11.80
2022-11-05T06:30:33.632Z,11.80
2022-11-05T06:35:38.513Z,11.70
2022-11-05T06:40:42.838Z,11.70
2022-11-05T06:45:46.358Z,11.70
2022-11-05T06:50:51.217Z,11.70
2022-11-05T06:55:54.887Z,11.70
2022-11-05T07:01:02.245Z,11.70
2022-11-05T07:06:08.311Z,11.60
2022-11-05T07:11:12.084Z,11.60
2022-11-05T07:16:15.590Z,11.60
2022-11-05T07:21:20.467Z,11.70
2022-11-05T07:26:23.969Z,11.70
2022-11-05T07:31:27.528Z,11.60
2022-11-05T07:36:32.478Z,11.60
2022-11-05T07:41:36.064Z,11.60
2022-11-05T07:46:39.594Z,11.60
2022-11-05T07:51:44.787Z,11.70
2022-11-05T07:56:48.693Z,11.70
2022-11-05T08:01:52.316Z,11.70
2022-11-05T08:06:57.364Z,11.70
2022-11-05T08:12:03.005Z,11.80
2022-11-05T08:17:07.032Z,11.90
2022-11-05T08:22:11.947Z,12.00
2022-11-05T08:27:15.452Z,12.00
2022-11-05T08:32:19.000Z,12.10
2022-11-05T08:37:23.922Z,12.20
2022-11-05T08:42:27.515Z,12.30
2022-11-05T08:47:31.147Z,12.40
2022-11-05T08:52:36.033Z,12.50
2022-11-05T08:57:39.556Z,12.50
2022-11-05T09:02:43.403Z,12.60
2022-11-05T09:07:48.314Z,12.80
2022-11-05T09:12:51.918Z,12.90
2022-11-05T09:17:55.832Z,13.20
2022-11-05T09:23:00.862Z,13.60
2022-11-05T09:28:12.272Z,13.80
2022-11-05T09:33:19.959Z,14.10
2022-11-05T09:38:24.860Z,14.50
2022-11-05T09:43:35.320Z,14.70
2022-11-05T09:48:40.238Z,15.00
2022-11-05T09:53:47.295Z,15.40
2022-11-05T09:58:55.588Z,15.50
2022-11-05T10:04:03.052Z,15.30
2022-11-05T10:09:14.066Z,15.20
2022-11-05T10:14:22.589Z,15.20
2022-11-05T10:19:29.411Z,15.40
2022-11-05T10:24:34.317Z,15.60
2022-11-05T10:29:38.126Z,15.80
2022-11-05T10:34:42.430Z,15.90
2022-11-05T10:39:47.367Z,16.30
2022-11-05T10:45:00.507Z,16.40
2022-11-05T10:50:06.197Z,16.50
2022-11-05T10:55:22.700Z,16.70
2022-11-05T11:00:29.400Z,16.80
2022-11-05T11:05:35.536Z,16.90
2022-11-05T11:10:51.156Z,16.90
2022-11-05T11:15:55.292Z,16.70
2022-11-05T11:21:08.620Z,16.60
2022-11-05T11:26:14.814Z,16.60
2022-11-05T11:31:24.153Z,16.60
2022-11-05T11:36:33.448Z,16.50
2022-11-05T11:41:41.949Z,16.40
2022-11-05T11:46:49.773Z,16.20
2022-11-05T11:52:00.661Z,16.10
2022-11-05T11:57:24.551Z,15.90
2022-11-05T12:03:01.885Z,15.70
2022-11-05T12:08:27.203Z,15.60
2022-11-05T12:14:00.060Z,15.50
2022-11-05T12:19:13.847Z,15.50
2022-11-05T12:24:56.533Z,15.40
2022-11-05T12:30:06.350Z,15.40
2022-11-05T12:35:24.696Z,15.40
2022-11-05T12:40:47.407Z,15.40
2022-11-05T12:45:59.813Z,15.40
2022-11-05T12:51:12.439Z,15.50
2022-11-05T12:56:22.332Z,15.50
2022-11-05T13:01:35.402Z,15.60
2022-11-05T13:06:40.820Z,15.60
2022-11-05T13:11:49.338Z,15.60
2022-11-05T13:16:58.070Z,15.50
2022-11-05T13:22:09.490Z,15.50
2022-11-05T13:27:42.308Z,15.50
2022-11-05T13:32:51.370Z,15.50
2022-11-05T13:38:17.947Z,15.60
2022-11-05T13:43:44.774Z,15.60
2022-11-05T13:49:21.780Z,15.60
2022-11-05T13:55:03.580Z,15.50
2022-11-05T14:00:12.561Z,15.50
2022-11-05T14:05:27.479Z,15.40
2022-11-05T14:10:37.613Z,15.30
2022-11-05T14:15:41.281Z,15.30
2022-11-05T14:20:58.266Z,15.30
2022-11-05T14:26:16.911Z,15.30
2022-11-05T14:32:02.536Z,15.30
2022-11-05T14:37:22.277Z,15.20
2022-11-05T14:42:29.682Z,15.30
2022-11-05T14:47:36.592Z,15.30
2022-11-05T14:52:50.955Z,15.30
2022-11-05T14:58:25.615Z,15.30
2022-11-05T15:04:01.129Z,15.30
2022-11-05T15:09:33.686Z,15.30
2022-11-05T15:14:43.351Z,15.30
2022-11-05T15:19:48.161Z,15.40
2022-11-05T15:24:52.048Z,15.50
2022-11-05T15:29:58.118Z,15.60
2022-11-05T15:35:01.671Z,15.60
2022-11-05T15:40:24.502Z,15.60
2022-11-05T15:45:29.416Z,15.60
2022-11-05T15:50:33.134Z,15.60
2022-11-05T15:55:36.883Z,15.60
2022-11-05T16:00:48.856Z,15.60
2022-11-05T16:05:53.451Z,15.60
2022-11-05T16:10:57.599Z,15.50
2022-11-05T16:16:04.764Z,15.50
2022-11-05T16:21:09.668Z,15.40
2022-11-05T16:27:01.214Z,15.50
2022-11-05T16:32:01.533Z,15.40
2022-11-05T16:37:06.526Z,15.40
2022-11-05T16:42:37.612Z,15.40
2022-11-05T16:47:43.486Z,15.30
2022-11-05T16:52:47.598Z,15.30
2022-11-05T16:57:54.079Z,15.30
2022-11-05T17:02:59.013Z,15.30
2022-11-05T17:08:03.526Z,15.20
2022-11-05T17:13:07.054Z,15.20
2022-11-05T17:18:17.942Z,15.20
2022-11-05T17:23:24.021Z,15.20
2022-11-05T17:28:29.044Z,15.10
2022-11-05T17:33:34.315Z,15.10
2022-11-05T17:38:38.154Z,15.10
2022-11-05T17:43:41.795Z,15.10
2022-11-05T17:48:47.274Z,15.20
2022-11-05T17:53:51.024Z,15.20
2022-11-05T17:58:55.498Z,15.30
2022-11-05T18:04:07.164Z,15.20
2022-11-05T18:09:12.764Z,15.20
2022-11-05T18:14:21.297Z,15.20
2022-11-05T18:19:29.295Z,15.10
2022-11-05T18:24:33.269Z,15.00
2022-11-05T18:29:37.019Z,15.00
2022-11-05T18:34:42.100Z,14.90
2022-11-05T18:39:46.550Z,14.90
2022-11-05T18:44:50.574Z,14.90
2022-11-05T18:49:55.461Z,14.90
2022-11-05T18:54:59.023Z,14.80
2022-11-05T19:00:02.862Z,14.80
2022-11-05T19:10:32.140Z,14.80
2022-11-05T19:15:35.632Z,14.80
2022-11-05T19:20:40.608Z,14.80
2022-11-05T19:25:44.168Z,14.90
2022-11-05T19:30:47.743Z,14.90
2022-11-05T19:35:52.598Z,14.90
2022-11-05T19:40:56.133Z,14.90
2022-11-05T19:45:59.648Z,15.00
2022-11-05T19:51:08.093Z,15.00
2022-11-05T19:56:14.098Z,15.10
2022-11-05T20:01:19.439Z,15.10
2022-11-05T20:06:28.573Z,15.00
2022-11-05T20:11:32.113Z,15.00
2022-11-05T20:16:39.017Z,15.00
2022-11-05T20:21:44.380Z,15.00
2022-11-05T20:26:48.031Z,15.00
2022-11-05T20:31:53.498Z,15.10
2022-11-05T20:36:58.420Z,15.10
2022-11-05T20:42:01.935Z,15.00
2022-11-05T20:47:05.885Z,15.00
2022-11-05T20:52:12.158Z,15.10
2022-11-05T20:57:15.692Z,15.10
2022-11-05T21:02:19.371Z,14.90
2022-11-05T21:07:24.330Z,15.00
2022-11-05T21:12:27.913Z,14.90
2022-11-05T21:17:31.415Z,14.90
2022-11-05T21:22:36.313Z,14.80
2022-11-05T21:27:43.420Z,14.80
2022-11-05T21:32:47.308Z,14.70
2022-11-05T21:37:52.245Z,14.70
2022-11-05T21:42:55.763Z,14.70
2022-11-05T21:47:59.500Z,14.70
2022-11-05T21:53:21.875Z,14.70
2022-11-05T21:58:43.098Z,14.70
2022-11-05T22:03:46.717Z,14.70
2022-11-05T22:08:51.595Z,14.70
2022-11-05T22:13:55.170Z,14.70
2022-11-05T22:18:58.930Z,14.70
2022-11-05T22:24:04.149Z,14.80
2022-11-05T22:29:07.933Z,14.90
2022-11-05T22:34:11.878Z,15.00
2022-11-05T22:39:17.275Z,15.00
2022-11-05T22:44:20.944Z,15.00
2022-11-05T22:49:24.743Z,15.20
2022-11-05T22:54:31.734Z,15.20
2022-11-05T22:59:37.486Z,15.20
2022-11-05T23:04:41.214Z,15.20
2022-11-05T23:10:03.926Z,15.30
2022-11-05T23:15:11.456Z,15.30
2022-11-05T23:20:35.352Z,15.40
2022-11-05T23:25:40.247Z,15.40
